Pearl River, Louisiana
Current Conditions -  °F | °C
As of 11:53 AM on Thursday 27 Nov 2014 (Local Time) from KASD Reporting Station
Clear Clear  
Wind Chill: 60°   Ceiling: Unl
Heat Index: 60°   Visibility: 10mi
Dew Point: 31°   Wind: 9mph
Humidity: 33%   Direction: 340°NNW
Pressure: 30.4"   Gusts: 18mph
Location:  30.38°N, 89.75°W
Report Text: KASD 271753Z AUTO 34008G16KT 10SM CLR 16/M01 A3040 RMK AO2 SLP294 T01561006 10156 20044 58013
Loading
Personal Weather Stations






























Interactive Weather Map New forecast layout! Learn more

10-Day Weather Forecast

Advertisements
Track Severe Weather on mobile